EDDSEDDC

Guest
Details From EDDS - Stuttgart
To EDDC - Dresden
Flight Number -
Tags Generated
Created
Modified
Stats Distance 229 nm / 424 km
Max Altitude 0 ft / 0 m
Waypoints 3
Social Downloads 1
Likes 0
Share VATSIM

Download

Looking for another format? Having issues loading an existing format? Contact us
Advertisement - Login to hide

Notes

Generated

Route

EDDS DC022 EDDC

ID Type Via Altitude Latitude Longitude Leg Dist Tot Dist Heading (true) Name
O EDDS APT - 0 ft / 0 m 48.68573˚ 9.20013˚ - 0 nm - -
DC022 FIX - 0 ft / 0 m 51.12055˚ 13.75011˚ 228 nm 228 nm 49° / 52° -
O EDDC APT - 0 ft / 0 m 51.12425˚ 13.75544˚ 0 nm 229 nm 42° / 42° -

Altitude Profile

Advertisement - Login to hide

Weather


0- 5 10 15 20 25 30 35+ Temperature / ° C

Clouds and Precipitation
Forecast for 2018-06-22 00:00 UTC. Updated 6 hours ago

Ground ~20,000 ft ~40,000 ft Winds

EDDS

Details ICAO EDDS (STR)
Name Stuttgart
Region Germany - Civil
Timezone Europe/Berlin (UTC+2.0)
Stats Elevation 1,273 ft / 388 m (AMSL)
Location 48.689876° 9.221962°
Runways 1
Magnetic Variation 2.588° E

METAR

EDDS 220250Z 29007KT CAVOK 09/05 Q1024

Decode

TAF

TAF TAF EDDS 212300Z 2200/2224 29006KT CAVOK BECMG 2206/2209 29011KT BECMG 2218/2221 28005KT

Decode

Departure Runways

ID Width Length Bearing (true) Bearing (mag) Surface Threshold Offset Overrun Length
07 148 ft / 45 m 10,950 ft / 3,337 m 73.96° 71.37° Concrete 981 ft / 299 m 157 ft / 48 m
25 148 ft / 45 m 10,950 ft / 3,337 m 253.99° 251.40° Concrete 0 ft / 0 m 157 ft / 48 m

EDDC

Details ICAO EDDC (DRS)
Name Dresden
Region Germany - Civil
Timezone Europe/Berlin (UTC+2.0)
Stats Elevation 752 ft / 229 m (AMSL)
Location 51.134366° 13.768065°
Runways 1
Magnetic Variation 3.866° E

METAR

EDDC 220250Z 26006KT 230V290 9999 BKN040 SCT300 09/05 Q1018

Decode

TAF

TAF EDDC 212300Z 2200/2224 29008KT 9999 SCT030 BECMG 2205/2208 29015G25KT TEMPO 2208/2212 29020G30KT SHRA BKN012TCU PROB30 TEMPO 2212/2219 29020G35KT TSRA BKN020CB

Decode

Destination Runways

ID Width Length Bearing (true) Bearing (mag) Surface Threshold Offset Overrun Length
04 197 ft / 60 m 9,348 ft / 2,849 m 40.74° 36.87° Concrete 0 ft / 0 m 0 ft / 0 m
22 197 ft / 60 m 9,348 ft / 2,849 m 220.76° 216.89° Concrete 984 ft / 300 m 0 ft / 0 m

Approach Navaids

Runway Type Ident Frequency Range Bearing (true) Bearing (mag) Slope Elevation
04 Localiser IDRE 110.50 MHz 18 nm / 33 km 40.83° 36.96° - 703 ft / 214 m (AMSL)
04 Glidescope IDRE 110.50 MHz 10 nm / 19 km 40.83° 36.96° 3.00° 755 ft / 230 m (AMSL)
22 Localiser IDRW 109.70 MHz 18 nm / 33 km 220.81° 216.94° - 755 ft / 230 m (AMSL)
22 Glidescope IDRW 109.70 MHz 10 nm / 19 km 220.81° 216.94° 3.00° 703 ft / 214 m (AMSL)

Popular Alternatives